createdAt,value
2022-12-25T00:00:47.815Z,52.75
2022-12-25T00:01:47.734Z,49.72
2022-12-25T00:02:47.835Z,47.41
2022-12-25T00:03:47.871Z,51.19
2022-12-25T00:04:47.710Z,53.75
2022-12-25T00:05:47.729Z,50.31
2022-12-25T00:06:47.760Z,54.49
2022-12-25T00:07:47.702Z,53.30
2022-12-25T00:08:47.692Z,50.81
2022-12-25T00:09:47.712Z,50.91
2022-12-25T00:10:47.708Z,48.35
2022-12-25T00:11:47.669Z,51.33
2022-12-25T00:12:47.676Z,49.39
2022-12-25T00:13:47.664Z,48.10
2022-12-25T00:14:47.652Z,51.47
2022-12-25T00:15:47.694Z,51.17
2022-12-25T00:16:47.687Z,50.69
2022-12-25T00:17:47.616Z,50.03
2022-12-25T00:18:47.611Z,48.49
2022-12-25T00:19:47.612Z,48.95
2022-12-25T00:20:47.615Z,51.54
2022-12-25T00:21:47.593Z,50.75
2022-12-25T00:22:48.598Z,48.05
2022-12-25T00:23:47.608Z,48.00
2022-12-25T00:24:47.579Z,46.50
2022-12-25T00:25:47.579Z,49.82
2022-12-25T00:26:47.577Z,51.99
2022-12-25T00:27:47.560Z,53.67
2022-12-25T00:28:47.559Z,53.77
2022-12-25T00:29:47.535Z,52.63
2022-12-25T00:30:47.532Z,51.25
2022-12-25T00:31:47.645Z,48.24
2022-12-25T00:32:47.530Z,48.05
2022-12-25T00:33:47.539Z,50.84
2022-12-25T00:34:47.498Z,48.49
2022-12-25T00:35:48.490Z,49.36
2022-12-25T00:36:47.501Z,53.46
2022-12-25T00:37:47.479Z,48.42
2022-12-25T00:38:47.486Z,46.98
2022-12-25T00:39:47.474Z,47.67
2022-12-25T00:40:47.466Z,51.83
2022-12-25T00:41:47.443Z,48.23
2022-12-25T00:42:47.447Z,49.43
2022-12-25T00:43:47.459Z,50.47
2022-12-25T00:44:47.473Z,53.97
2022-12-25T00:45:47.487Z,48.95
2022-12-25T00:46:47.484Z,46.78
2022-12-25T00:47:47.422Z,52.78
2022-12-25T00:48:47.401Z,50.57
2022-12-25T00:49:47.407Z,50.65
2022-12-25T00:50:47.384Z,46.61
2022-12-25T00:51:47.378Z,52.01
2022-12-25T00:52:47.375Z,51.70
2022-12-25T00:53:47.367Z,52.63
2022-12-25T00:54:47.371Z,52.21
2022-12-25T00:55:47.346Z,50.93
2022-12-25T00:56:48.343Z,51.94
2022-12-25T00:57:47.339Z,48.60
2022-12-25T00:58:47.342Z,47.09
2022-12-25T00:59:47.339Z,47.96
2022-12-25T01:00:47.349Z,48.16
2022-12-25T01:01:47.421Z,52.81
2022-12-25T01:02:47.485Z,52.91
2022-12-25T01:03:47.310Z,48.45
2022-12-25T01:04:47.830Z,49.13
2022-12-25T01:05:47.305Z,47.58
2022-12-25T01:06:47.302Z,45.98
2022-12-25T01:07:47.272Z,47.46
2022-12-25T01:08:47.266Z,55.52
2022-12-25T01:09:47.266Z,50.76
2022-12-25T01:10:47.259Z,50.79
2022-12-25T01:11:47.250Z,48.54
2022-12-25T01:12:47.246Z,47.35
2022-12-25T01:13:47.229Z,45.96
2022-12-25T01:14:47.234Z,46.16
2022-12-25T01:15:47.227Z,51.43
2022-12-25T01:16:47.335Z,49.34
2022-12-25T01:17:47.227Z,49.42
2022-12-25T01:18:47.199Z,46.53
2022-12-25T01:19:47.207Z,48.86
2022-12-25T01:20:47.193Z,46.83
2022-12-25T01:21:47.192Z,48.42
2022-12-25T01:22:47.371Z,48.65
2022-12-25T01:23:47.163Z,45.95
2022-12-25T01:24:47.142Z,46.66
2022-12-25T01:25:47.197Z,45.50
2022-12-25T01:26:47.172Z,47.40
2022-12-25T01:27:47.167Z,51.34
2022-12-25T01:28:47.165Z,47.59
2022-12-25T01:29:47.138Z,45.61
2022-12-25T01:30:47.138Z,47.08
2022-12-25T01:31:47.165Z,46.96
2022-12-25T01:32:47.095Z,47.90
2022-12-25T01:33:47.099Z,45.64
2022-12-25T01:34:51.987Z,47.35
2022-12-25T01:35:49.089Z,49.35
2022-12-25T01:36:47.063Z,46.30
2022-12-25T01:37:47.085Z,46.96
2022-12-25T01:38:47.060Z,48.54
2022-12-25T01:39:47.036Z,49.77
2022-12-25T01:40:47.040Z,46.70
2022-12-25T01:41:47.023Z,48.65
2022-12-25T01:42:47.080Z,49.71
2022-12-25T01:43:47.011Z,47.40
2022-12-25T01:44:47.015Z,46.32
2022-12-25T01:45:48.370Z,49.61
2022-12-25T01:46:47.040Z,48.46
2022-12-25T01:47:47.990Z,47.04
2022-12-25T01:48:46.979Z,46.76
2022-12-25T01:49:46.987Z,45.70
2022-12-25T01:50:46.988Z,45.72
2022-12-25T01:51:46.960Z,45.85
2022-12-25T01:52:46.930Z,46.90
2022-12-25T01:53:46.967Z,51.27
2022-12-25T01:54:46.926Z,47.80
2022-12-25T01:55:47.930Z,45.77
2022-12-25T01:56:46.926Z,45.69
2022-12-25T01:57:46.914Z,45.75
2022-12-25T01:58:46.918Z,46.36
2022-12-25T01:59:46.916Z,48.24
2022-12-25T02:00:46.899Z,52.15
2022-12-25T02:01:47.045Z,49.78
2022-12-25T02:02:47.011Z,48.28
2022-12-25T02:03:46.861Z,56.67
2022-12-25T02:04:46.874Z,49.97
2022-12-25T02:05:46.860Z,51.72
2022-12-25T02:06:46.856Z,51.75
2022-12-25T02:07:46.846Z,48.82
2022-12-25T02:08:46.844Z,46.52
2022-12-25T02:09:46.842Z,48.28
2022-12-25T02:10:47.827Z,46.43
2022-12-25T02:11:46.817Z,51.23
2022-12-25T02:12:46.816Z,48.17
2022-12-25T02:13:46.798Z,46.41
2022-12-25T02:14:46.803Z,45.79
2022-12-25T02:15:46.786Z,46.46
2022-12-25T02:16:56.559Z,47.37
2022-12-25T02:17:47.780Z,48.08
2022-12-25T02:18:46.763Z,46.56
2022-12-25T02:19:46.767Z,45.80
2022-12-25T02:20:46.763Z,46.06
2022-12-25T02:21:46.781Z,50.11
2022-12-25T02:22:46.745Z,46.42
2022-12-25T02:23:47.732Z,49.69
2022-12-25T02:24:46.722Z,45.96
2022-12-25T02:25:46.710Z,47.53
2022-12-25T02:26:46.721Z,46.56
2022-12-25T02:27:46.707Z,49.14
2022-12-25T02:28:46.698Z,48.03
2022-12-25T02:29:46.693Z,45.85
2022-12-25T02:30:46.677Z,46.15
2022-12-25T02:31:46.716Z,48.97
2022-12-25T02:32:46.686Z,45.77
2022-12-25T02:33:46.670Z,45.77
2022-12-25T02:34:46.659Z,46.81
2022-12-25T02:35:46.647Z,49.79
2022-12-25T02:36:46.667Z,46.75
2022-12-25T02:37:46.637Z,46.18
2022-12-25T02:38:46.637Z,46.48
2022-12-25T02:39:46.610Z,45.71
2022-12-25T02:40:46.603Z,45.89
2022-12-25T02:41:46.608Z,50.57
2022-12-25T02:42:46.596Z,46.16
2022-12-25T02:43:46.595Z,45.82
2022-12-25T02:44:46.598Z,45.81
2022-12-25T02:45:46.620Z,45.76
2022-12-25T02:46:46.571Z,45.68
2022-12-25T02:47:46.559Z,48.01
2022-12-25T02:48:46.562Z,49.01
2022-12-25T02:49:46.563Z,46.48
2022-12-25T02:50:46.546Z,51.50
2022-12-25T02:51:46.523Z,49.34
2022-12-25T02:52:46.526Z,47.91
2022-12-25T02:53:46.516Z,49.74
2022-12-25T02:54:46.535Z,48.69
2022-12-25T02:55:46.499Z,49.49
2022-12-25T02:56:46.501Z,45.99
2022-12-25T02:57:46.501Z,45.97
2022-12-25T02:58:46.487Z,45.89
2022-12-25T02:59:46.489Z,45.83
2022-12-25T03:00:46.492Z,47.84
2022-12-25T03:01:46.669Z,47.08
2022-12-25T03:02:46.460Z,49.46
2022-12-25T03:03:46.531Z,47.63
2022-12-25T03:04:46.448Z,47.53
2022-12-25T03:05:46.443Z,48.10
2022-12-25T03:06:46.603Z,48.03
2022-12-25T03:07:46.438Z,49.74
2022-12-25T03:08:46.420Z,47.32
2022-12-25T03:09:46.428Z,52.77
2022-12-25T03:10:46.440Z,51.73
2022-12-25T03:11:46.491Z,46.42
2022-12-25T03:12:46.407Z,49.06
2022-12-25T03:13:46.403Z,47.04
2022-12-25T03:14:46.391Z,46.74
2022-12-25T03:15:46.379Z,47.95
2022-12-25T03:16:46.394Z,45.86
2022-12-25T03:17:46.352Z,46.05
2022-12-25T03:18:46.390Z,48.33
2022-12-25T03:19:46.340Z,56.05
2022-12-25T03:20:46.328Z,47.72
2022-12-25T03:21:46.318Z,48.74
2022-12-25T03:22:46.311Z,48.44
2022-12-25T03:23:46.315Z,49.26
2022-12-25T03:24:46.299Z,47.18
2022-12-25T03:25:46.300Z,49.90
2022-12-25T03:26:46.311Z,46.04
2022-12-25T03:27:46.280Z,46.03
2022-12-25T03:28:46.291Z,46.41
2022-12-25T03:29:46.263Z,50.93
2022-12-25T03:30:46.294Z,49.55
2022-12-25T03:31:46.266Z,48.24
2022-12-25T03:32:46.252Z,52.00
2022-12-25T03:33:46.325Z,47.70
2022-12-25T03:34:46.248Z,48.91
2022-12-25T03:35:46.223Z,45.83
2022-12-25T03:36:46.216Z,46.60
2022-12-25T03:37:46.217Z,48.13
2022-12-25T03:38:46.221Z,48.63
2022-12-25T03:39:46.281Z,46.99
2022-12-25T03:40:46.203Z,45.96
2022-12-25T03:41:46.185Z,45.83
2022-12-25T03:42:46.198Z,46.01
2022-12-25T03:43:46.171Z,47.53
2022-12-25T03:44:46.172Z,48.47
2022-12-25T03:45:46.222Z,47.06
2022-12-25T03:46:46.145Z,45.81
2022-12-25T03:47:46.138Z,45.77
2022-12-25T03:48:46.122Z,45.82
2022-12-25T03:49:46.118Z,45.84
2022-12-25T03:50:46.128Z,48.27
2022-12-25T03:51:46.111Z,47.33
2022-12-25T03:52:46.122Z,45.93
2022-12-25T03:53:46.103Z,47.89
2022-12-25T03:54:46.088Z,46.56
2022-12-25T03:55:46.081Z,47.87
2022-12-25T03:56:46.078Z,46.83
2022-12-25T03:57:46.085Z,47.52
2022-12-25T03:58:46.058Z,50.62
2022-12-25T03:59:46.056Z,49.20
2022-12-25T04:00:46.037Z,49.10
2022-12-25T04:01:46.128Z,46.20
2022-12-25T04:02:46.180Z,47.92
2022-12-25T04:03:46.071Z,50.65
2022-12-25T04:04:46.001Z,49.30
2022-12-25T04:05:46.005Z,48.14
2022-12-25T04:06:45.991Z,47.46
2022-12-25T04:07:45.998Z,48.30
2022-12-25T04:08:45.986Z,46.44
2022-12-25T04:09:45.970Z,46.11
2022-12-25T04:10:45.985Z,45.96
2022-12-25T04:11:45.960Z,45.85
2022-12-25T04:12:45.974Z,49.08
2022-12-25T04:13:45.941Z,50.91
2022-12-25T04:14:45.934Z,49.89
2022-12-25T04:15:46.017Z,48.58
2022-12-25T04:16:45.922Z,52.18
2022-12-25T04:17:45.950Z,49.21
2022-12-25T04:18:45.906Z,49.43
2022-12-25T04:19:46.899Z,48.31
2022-12-25T04:20:45.907Z,47.68
2022-12-25T04:21:45.895Z,46.41
2022-12-25T04:22:45.886Z,51.76
2022-12-25T04:23:45.893Z,49.25
2022-12-25T04:24:45.867Z,53.81
2022-12-25T04:25:45.868Z,51.10
2022-12-25T04:26:45.858Z,51.86
2022-12-25T04:27:45.861Z,50.76
2022-12-25T04:28:45.858Z,49.71
2022-12-25T04:29:45.835Z,52.60
2022-12-25T04:30:45.876Z,50.46
2022-12-25T04:31:45.840Z,48.02
2022-12-25T04:32:45.799Z,46.86
2022-12-25T04:33:45.818Z,52.14
2022-12-25T04:34:45.821Z,46.80
2022-12-25T04:35:45.797Z,47.82
2022-12-25T04:36:45.784Z,46.39
2022-12-25T04:37:45.774Z,48.55
2022-12-25T04:38:45.783Z,47.76
2022-12-25T04:39:45.776Z,49.50
2022-12-25T04:40:45.761Z,50.12
2022-12-25T04:41:45.759Z,48.20
2022-12-25T04:42:45.776Z,52.67
2022-12-25T04:43:45.738Z,53.58
2022-12-25T04:44:45.736Z,53.35
2022-12-25T04:45:45.765Z,48.29
2022-12-25T04:46:45.765Z,51.22
2022-12-25T04:47:45.711Z,50.38
2022-12-25T04:48:45.699Z,48.84
2022-12-25T04:49:45.733Z,51.99
2022-12-25T04:50:46.696Z,50.72
2022-12-25T04:51:45.679Z,48.81
2022-12-25T04:52:45.669Z,46.21
2022-12-25T04:53:45.650Z,46.35
2022-12-25T04:54:45.641Z,50.58
2022-12-25T04:55:45.864Z,49.26
2022-12-25T04:56:46.178Z,47.55
2022-12-25T04:57:46.619Z,46.11
2022-12-25T04:58:45.630Z,47.91
2022-12-25T04:59:45.618Z,51.14
2022-12-25T05:00:45.623Z,50.39
2022-12-25T05:01:45.670Z,51.94
2022-12-25T05:02:46.774Z,48.26
2022-12-25T05:03:45.645Z,46.36
2022-12-25T05:04:45.579Z,48.03
2022-12-25T05:05:45.584Z,49.58
2022-12-25T05:06:45.571Z,53.12
2022-12-25T05:07:45.568Z,52.72
2022-12-25T05:08:45.550Z,48.90
2022-12-25T05:09:45.552Z,46.57
2022-12-25T05:10:45.536Z,46.64
2022-12-25T05:11:45.550Z,50.50
2022-12-25T05:12:45.543Z,50.24
2022-12-25T05:13:45.521Z,47.10
2022-12-25T05:14:45.512Z,46.49
2022-12-25T05:15:45.592Z,53.31
2022-12-25T05:16:45.491Z,47.33
2022-12-25T05:17:45.487Z,51.89
2022-12-25T05:18:45.470Z,51.05
2022-12-25T05:19:45.488Z,49.93
2022-12-25T05:20:45.468Z,51.63
2022-12-25T05:21:45.467Z,49.05
2022-12-25T05:22:45.474Z,49.90
2022-12-25T05:23:45.446Z,52.90
2022-12-25T05:24:45.445Z,50.26
2022-12-25T05:25:45.443Z,47.52
2022-12-25T05:26:45.431Z,50.16
2022-12-25T05:27:50.297Z,48.79
2022-12-25T05:28:47.411Z,48.86
2022-12-25T05:29:45.400Z,50.23
2022-12-25T05:30:45.393Z,46.47
2022-12-25T05:31:45.443Z,49.07
2022-12-25T05:32:45.374Z,48.68
2022-12-25T05:33:45.368Z,54.74
2022-12-25T05:34:45.367Z,52.06
2022-12-25T05:35:45.377Z,47.96
2022-12-25T05:36:45.354Z,49.34
2022-12-25T05:37:45.365Z,51.56
2022-12-25T05:38:45.339Z,52.55
2022-12-25T05:39:45.344Z,50.46
2022-12-25T05:40:45.328Z,49.70
2022-12-25T05:41:45.323Z,49.69
2022-12-25T05:42:45.327Z,51.44
2022-12-25T05:43:45.312Z,52.19
2022-12-25T05:44:45.294Z,51.05
2022-12-25T05:45:45.288Z,52.99
2022-12-25T05:46:45.338Z,51.84
2022-12-25T05:47:45.269Z,48.21
2022-12-25T05:48:45.280Z,50.81
2022-12-25T05:49:45.314Z,47.79
2022-12-25T05:50:45.319Z,49.20
2022-12-25T05:51:45.245Z,48.49
2022-12-25T05:52:45.235Z,49.24
2022-12-25T05:53:45.229Z,50.59
2022-12-25T05:54:45.234Z,49.77
2022-12-25T05:55:45.222Z,52.64
2022-12-25T05:56:45.190Z,54.15
2022-12-25T05:57:45.200Z,50.62
2022-12-25T05:58:45.188Z,52.34
2022-12-25T05:59:45.177Z,50.55
2022-12-25T06:00:45.179Z,50.43
2022-12-25T06:01:45.266Z,52.72
2022-12-25T06:02:45.407Z,52.78
2022-12-25T06:03:45.310Z,50.20
2022-12-25T06:04:45.153Z,46.67
2022-12-25T06:05:45.168Z,49.26
2022-12-25T06:06:45.129Z,49.86
2022-12-25T06:07:45.132Z,48.11
2022-12-25T06:08:45.160Z,47.74
2022-12-25T06:09:45.114Z,51.62
2022-12-25T06:10:45.102Z,53.09
2022-12-25T06:11:45.124Z,48.68
2022-12-25T06:12:45.103Z,47.00
2022-12-25T06:13:45.068Z,46.35
2022-12-25T06:14:45.078Z,48.04
2022-12-25T06:15:45.068Z,47.84
2022-12-25T06:16:45.098Z,49.48
2022-12-25T06:17:45.066Z,47.51
2022-12-25T06:18:45.030Z,49.06
2022-12-25T06:19:45.080Z,51.34
2022-12-25T06:20:45.031Z,51.32
2022-12-25T06:21:45.028Z,48.98
2022-12-25T06:22:45.034Z,51.16
2022-12-25T06:23:45.093Z,49.92
2022-12-25T06:24:44.997Z,51.13
2022-12-25T06:25:45.002Z,48.39
2022-12-25T06:26:44.986Z,50.43
2022-12-25T06:27:44.990Z,53.69
2022-12-25T06:28:44.982Z,51.34
2022-12-25T06:29:44.967Z,48.45
2022-12-25T06:30:44.947Z,54.93
2022-12-25T06:31:45.066Z,55.69
2022-12-25T06:32:44.961Z,54.37
2022-12-25T06:33:44.960Z,53.07
2022-12-25T06:34:44.922Z,49.47
2022-12-25T06:35:44.926Z,50.51
2022-12-25T06:36:44.913Z,51.09
2022-12-25T06:37:44.926Z,50.17
2022-12-25T06:38:44.956Z,50.16
2022-12-25T06:39:44.897Z,47.75
2022-12-25T06:40:44.885Z,50.52
2022-12-25T06:41:44.893Z,53.31
2022-12-25T06:42:44.885Z,51.33
2022-12-25T06:43:44.898Z,50.85
2022-12-25T06:44:44.881Z,47.78
2022-12-25T06:45:44.976Z,50.73
2022-12-25T06:46:44.841Z,49.26
2022-12-25T06:47:45.130Z,52.04
2022-12-25T06:48:44.846Z,52.33
2022-12-25T06:49:44.854Z,52.94
2022-12-25T06:50:44.856Z,50.54
2022-12-25T06:51:44.817Z,49.89
2022-12-25T06:52:44.825Z,49.23
2022-12-25T06:53:44.794Z,52.44
2022-12-25T06:54:44.856Z,54.97
2022-12-25T06:55:45.748Z,53.98
2022-12-25T06:56:44.775Z,51.20
2022-12-25T06:57:44.790Z,50.70
2022-12-25T06:58:44.773Z,53.84
2022-12-25T06:59:47.420Z,51.04
2022-12-25T07:00:45.841Z,50.85
2022-12-25T07:01:44.842Z,48.52
2022-12-25T07:02:44.842Z,53.79
2022-12-25T07:03:44.753Z,50.42
2022-12-25T07:04:44.726Z,49.08
2022-12-25T07:05:44.723Z,49.31
2022-12-25T07:06:44.720Z,52.57
2022-12-25T07:07:44.711Z,52.78
2022-12-25T07:08:44.706Z,53.27
2022-12-25T07:09:44.725Z,46.48
2022-12-25T07:10:44.681Z,46.57
2022-12-25T07:11:44.673Z,49.29
2022-12-25T07:12:44.670Z,50.76
2022-12-25T07:13:44.644Z,51.60
2022-12-25T07:14:44.694Z,52.49
2022-12-25T07:15:44.682Z,49.86
2022-12-25T07:16:44.716Z,48.73
2022-12-25T07:17:44.632Z,52.91
2022-12-25T07:18:44.626Z,50.97
2022-12-25T07:19:45.534Z,50.70
2022-12-25T07:20:45.617Z,52.94
2022-12-25T07:21:44.608Z,53.05
2022-12-25T07:22:44.607Z,53.39
2022-12-25T07:23:44.596Z,52.92
2022-12-25T07:24:44.591Z,52.78
2022-12-25T07:25:44.571Z,53.61
2022-12-25T07:26:44.560Z,53.92
2022-12-25T07:27:44.555Z,50.32
2022-12-25T07:28:44.648Z,50.47
2022-12-25T07:29:44.563Z,50.13
2022-12-25T07:30:44.538Z,54.06
2022-12-25T07:31:44.623Z,55.63
2022-12-25T07:32:50.016Z,52.98
2022-12-25T07:33:46.519Z,51.06
2022-12-25T07:34:44.508Z,54.60
2022-12-25T07:35:44.506Z,50.79
2022-12-25T07:36:44.509Z,54.54
2022-12-25T07:37:44.482Z,55.88
2022-12-25T07:38:44.494Z,52.29
2022-12-25T07:39:44.474Z,51.44
2022-12-25T07:40:44.495Z,51.96
2022-12-25T07:41:44.483Z,54.03
2022-12-25T07:42:44.457Z,54.40
2022-12-25T07:43:44.447Z,57.48
2022-12-25T07:44:44.440Z,54.02
2022-12-25T07:45:44.476Z,54.82
2022-12-25T07:46:44.429Z,56.34
2022-12-25T07:47:44.423Z,56.45
2022-12-25T07:48:44.427Z,53.82
2022-12-25T07:49:44.440Z,52.49
2022-12-25T07:50:44.424Z,53.79
2022-12-25T07:51:44.395Z,54.00
2022-12-25T07:52:44.399Z,54.37
2022-12-25T07:53:44.381Z,54.37
2022-12-25T07:54:44.366Z,54.67
2022-12-25T07:55:44.472Z,52.65
2022-12-25T07:56:44.387Z,53.56
2022-12-25T07:57:44.355Z,54.83
2022-12-25T07:58:44.362Z,55.03
2022-12-25T07:59:44.339Z,53.31
2022-12-25T08:00:44.392Z,51.90
2022-12-25T08:01:44.508Z,55.14
2022-12-25T08:02:44.604Z,57.52
2022-12-25T08:03:44.359Z,53.63
2022-12-25T08:04:44.299Z,54.05
2022-12-25T08:05:44.282Z,52.85
2022-12-25T08:06:44.289Z,51.73
2022-12-25T08:07:44.293Z,54.89
2022-12-25T08:08:44.275Z,54.38
2022-12-25T08:09:44.257Z,51.93
2022-12-25T08:10:44.258Z,54.09
2022-12-25T08:11:44.249Z,54.55
2022-12-25T08:12:44.241Z,56.02
2022-12-25T08:13:44.254Z,55.25
2022-12-25T08:14:44.225Z,56.57
2022-12-25T08:15:44.224Z,54.35
2022-12-25T08:16:44.253Z,55.84
2022-12-25T08:17:44.209Z,53.26
2022-12-25T08:18:44.254Z,55.57
2022-12-25T08:19:44.193Z,53.71
2022-12-25T08:20:44.193Z,53.12
2022-12-25T08:21:44.174Z,59.19
2022-12-25T08:22:44.172Z,58.57
2022-12-25T08:23:44.176Z,56.50
2022-12-25T08:24:44.203Z,52.79
2022-12-25T08:25:44.173Z,54.85
2022-12-25T08:26:44.226Z,56.99
2022-12-25T08:27:44.138Z,54.60
2022-12-25T08:28:44.128Z,56.73
2022-12-25T08:29:44.136Z,55.80
2022-12-25T08:30:44.312Z,54.25
2022-12-25T08:31:46.388Z,55.11
2022-12-25T08:32:45.094Z,54.28
2022-12-25T08:33:44.093Z,54.01
2022-12-25T08:34:44.117Z,57.17
2022-12-25T08:35:44.083Z,57.45
2022-12-25T08:36:44.083Z,55.15
2022-12-25T08:37:44.063Z,54.77
2022-12-25T08:38:44.080Z,56.24
2022-12-25T08:39:44.061Z,57.03
2022-12-25T08:40:44.038Z,55.68
2022-12-25T08:41:44.041Z,57.02
2022-12-25T08:42:44.026Z,55.48
2022-12-25T08:43:44.051Z,55.72
2022-12-25T08:44:44.017Z,57.02
2022-12-25T08:45:44.053Z,54.60
2022-12-25T08:46:44.107Z,54.91
2022-12-25T08:47:43.985Z,56.17
2022-12-25T08:48:43.995Z,55.03
2022-12-25T08:49:44.007Z,55.32
2022-12-25T08:50:43.970Z,57.81
2022-12-25T08:51:43.962Z,57.86
2022-12-25T08:52:43.957Z,57.03
2022-12-25T08:53:44.004Z,57.81
2022-12-25T08:54:43.964Z,58.10
2022-12-25T08:55:43.944Z,57.08
2022-12-25T08:56:43.938Z,57.59
2022-12-25T08:57:43.928Z,57.84
2022-12-25T08:58:43.939Z,57.61
2022-12-25T08:59:43.950Z,57.39
2022-12-25T09:00:43.917Z,56.73
2022-12-25T09:01:44.038Z,56.04
2022-12-25T09:02:43.989Z,58.62
2022-12-25T09:03:44.032Z,55.79
2022-12-25T09:04:43.885Z,59.53
2022-12-25T09:05:43.865Z,58.57
2022-12-25T09:06:43.876Z,58.59
2022-12-25T09:07:43.854Z,62.04
2022-12-25T09:08:48.544Z,58.71
2022-12-25T09:09:45.841Z,59.57
2022-12-25T09:10:43.832Z,59.54
2022-12-25T09:11:43.826Z,58.33
2022-12-25T09:12:43.816Z,58.47
2022-12-25T09:13:43.810Z,58.31
2022-12-25T09:14:43.798Z,60.03
2022-12-25T09:15:43.868Z,57.25
2022-12-25T09:16:43.810Z,56.15
2022-12-25T09:17:43.779Z,59.05
2022-12-25T09:18:43.789Z,58.78
2022-12-25T09:19:43.786Z,58.93
2022-12-25T09:20:43.760Z,58.80
2022-12-25T09:21:43.769Z,59.64
2022-12-25T09:22:43.765Z,58.77
2022-12-25T09:23:43.735Z,57.04
2022-12-25T09:24:43.752Z,56.86
2022-12-25T09:25:43.729Z,57.05
2022-12-25T09:26:43.722Z,57.08
2022-12-25T09:27:43.762Z,59.77
2022-12-25T09:28:50.207Z,58.55
2022-12-25T09:29:45.692Z,58.95
2022-12-25T09:30:43.714Z,59.28
2022-12-25T09:31:43.706Z,58.27
2022-12-25T09:32:43.678Z,56.91
2022-12-25T09:33:43.692Z,58.56
2022-12-25T09:34:43.672Z,58.82
2022-12-25T09:35:43.655Z,57.49
2022-12-25T09:36:43.639Z,58.17
2022-12-25T09:37:43.669Z,59.80
2022-12-25T09:38:43.650Z,59.91
2022-12-25T09:39:46.345Z,59.51
2022-12-25T09:40:44.621Z,59.15
2022-12-25T09:41:43.623Z,60.72
2022-12-25T09:42:43.637Z,59.22
2022-12-25T09:43:43.638Z,58.37
2022-12-25T09:44:43.590Z,58.72
2022-12-25T09:45:43.588Z,60.09
2022-12-25T09:46:43.709Z,58.32
2022-12-25T09:47:43.580Z,59.99
2022-12-25T09:48:43.577Z,58.16
2022-12-25T09:49:43.595Z,57.96
2022-12-25T09:50:43.568Z,57.77
2022-12-25T09:51:43.566Z,59.00
2022-12-25T09:52:43.636Z,58.38
2022-12-25T09:53:43.542Z,58.94
2022-12-25T09:54:43.552Z,58.95
2022-12-25T09:55:43.523Z,59.18
2022-12-25T09:56:43.515Z,59.18
2022-12-25T09:57:43.496Z,58.47
2022-12-25T09:58:43.576Z,60.09
2022-12-25T09:59:43.492Z,60.17
2022-12-25T10:00:43.494Z,59.26
2022-12-25T10:01:43.603Z,60.14
2022-12-25T10:02:43.739Z,59.47
2022-12-25T10:03:43.562Z,60.56
2022-12-25T10:04:43.473Z,60.20
2022-12-25T10:05:43.455Z,60.76
2022-12-25T10:06:43.439Z,60.12
2022-12-25T10:07:43.443Z,58.23
2022-12-25T10:08:43.422Z,59.23
2022-12-25T10:09:43.433Z,59.66
2022-12-25T10:10:43.416Z,59.51
2022-12-25T10:11:43.419Z,60.80
2022-12-25T10:12:43.382Z,59.88
2022-12-25T10:13:43.403Z,59.47
2022-12-25T10:14:43.415Z,59.47
2022-12-25T10:15:45.634Z,60.25
2022-12-25T10:16:44.368Z,60.61
2022-12-25T10:17:43.366Z,60.17
2022-12-25T10:18:43.358Z,61.35
2022-12-25T10:19:43.380Z,59.67
2022-12-25T10:20:43.361Z,60.80
2022-12-25T10:21:43.336Z,59.46
2022-12-25T10:22:43.339Z,61.49
2022-12-25T10:23:43.324Z,59.37
2022-12-25T10:24:43.331Z,59.76
2022-12-25T10:25:43.333Z,59.15
2022-12-25T10:26:43.309Z,59.86
2022-12-25T10:27:43.303Z,59.22
2022-12-25T10:28:43.291Z,60.17
2022-12-25T10:29:43.289Z,59.97
2022-12-25T10:30:43.307Z,60.14
2022-12-25T10:31:43.401Z,59.33
2022-12-25T10:32:43.279Z,61.10
2022-12-25T10:33:43.257Z,59.18
2022-12-25T10:34:43.262Z,60.61
2022-12-25T10:35:43.247Z,60.71
2022-12-25T10:36:43.238Z,60.61
2022-12-25T10:37:43.242Z,60.93
2022-12-25T10:38:43.230Z,61.01
2022-12-25T10:39:46.589Z,60.67
2022-12-25T10:40:44.253Z,60.29
2022-12-25T10:41:43.204Z,60.33
2022-12-25T10:42:43.192Z,61.59
2022-12-25T10:43:43.191Z,59.44
2022-12-25T10:44:43.202Z,61.78
2022-12-25T10:45:43.180Z,62.16
2022-12-25T10:46:43.226Z,60.70
2022-12-25T10:47:43.166Z,60.40
2022-12-25T10:48:43.159Z,60.27
2022-12-25T10:49:43.152Z,61.04
2022-12-25T10:50:43.169Z,62.21
2022-12-25T10:51:43.134Z,60.82
2022-12-25T10:52:43.127Z,60.64
2022-12-25T10:53:43.130Z,61.68
2022-12-25T10:54:43.099Z,61.24
2022-12-25T10:55:44.121Z,60.60
2022-12-25T10:56:43.122Z,61.81
2022-12-25T10:57:43.092Z,61.29
2022-12-25T10:58:43.094Z,60.34
2022-12-25T10:59:43.109Z,60.77
2022-12-25T11:00:43.087Z,62.14
2022-12-25T11:01:43.152Z,63.00
2022-12-25T11:02:43.279Z,62.90
2022-12-25T11:03:43.076Z,63.01
2022-12-25T11:04:43.037Z,62.40
2022-12-25T11:05:43.049Z,61.40
2022-12-25T11:06:43.048Z,61.84
2022-12-25T11:07:43.014Z,61.53
2022-12-25T11:08:43.019Z,61.59
2022-12-25T11:09:43.003Z,59.40
2022-12-25T11:10:42.999Z,58.74
2022-12-25T11:11:43.131Z,58.45
2022-12-25T11:12:43.033Z,60.98
2022-12-25T11:13:42.985Z,60.95
2022-12-25T11:14:42.970Z,60.61
2022-12-25T11:15:43.027Z,60.94
2022-12-25T11:16:43.029Z,61.66
2022-12-25T11:17:42.970Z,60.76
2022-12-25T11:18:42.955Z,59.67
2022-12-25T11:19:42.958Z,62.08
2022-12-25T11:20:47.123Z,59.90
2022-12-25T11:21:43.929Z,60.43
2022-12-25T11:22:42.916Z,59.42
2022-12-25T11:23:42.922Z,60.29
2022-12-25T11:24:42.897Z,59.01
2022-12-25T11:25:42.894Z,59.36
2022-12-25T11:26:42.883Z,60.09
2022-12-25T11:27:42.882Z,60.16
2022-12-25T11:28:42.898Z,60.10
2022-12-25T11:29:42.882Z,58.54
2022-12-25T11:30:42.871Z,60.56
2022-12-25T11:31:42.921Z,59.40
2022-12-25T11:32:42.842Z,61.11
2022-12-25T11:33:42.838Z,61.55
2022-12-25T11:34:42.828Z,60.00
2022-12-25T11:35:42.825Z,60.52
2022-12-25T11:36:42.815Z,60.76
2022-12-25T11:37:42.814Z,60.06
2022-12-25T11:38:42.794Z,59.35
2022-12-25T11:39:42.795Z,60.72
2022-12-25T11:40:42.796Z,59.48
2022-12-25T11:41:42.781Z,59.24
2022-12-25T11:42:42.770Z,61.11
2022-12-25T11:43:42.760Z,58.42
2022-12-25T11:44:42.751Z,59.13
2022-12-25T11:45:42.779Z,60.28
2022-12-25T11:46:42.844Z,60.80
2022-12-25T11:47:42.758Z,59.92
2022-12-25T11:48:42.733Z,60.05
2022-12-25T11:49:48.716Z,59.68
2022-12-25T11:50:43.764Z,59.85
2022-12-25T11:51:42.724Z,57.32
2022-12-25T11:52:42.712Z,59.93
2022-12-25T11:53:42.716Z,59.61
2022-12-25T11:54:42.685Z,59.58
2022-12-25T11:55:42.690Z,60.18
2022-12-25T11:56:42.682Z,59.00
2022-12-25T11:57:42.657Z,59.53
2022-12-25T11:58:42.651Z,58.02
2022-12-25T11:59:42.646Z,58.75
2022-12-25T12:00:42.634Z,59.97
2022-12-25T12:01:42.734Z,58.96
2022-12-25T12:02:42.883Z,59.28
2022-12-25T12:03:42.716Z,58.99
2022-12-25T12:04:43.453Z,59.52
2022-12-25T12:05:43.600Z,58.63
2022-12-25T12:06:42.608Z,59.57
2022-12-25T12:07:42.586Z,60.06
2022-12-25T12:08:42.587Z,59.09
2022-12-25T12:09:42.576Z,58.73
2022-12-25T12:10:42.587Z,60.00
2022-12-25T12:11:42.557Z,59.94
2022-12-25T12:12:48.500Z,59.42
2022-12-25T12:13:44.582Z,60.37
2022-12-25T12:14:42.545Z,60.45
2022-12-25T12:15:42.530Z,59.52
2022-12-25T12:16:42.557Z,58.44
2022-12-25T12:17:42.537Z,59.30
2022-12-25T12:18:48.128Z,60.18
2022-12-25T12:19:44.507Z,60.84
2022-12-25T12:20:42.493Z,59.75
2022-12-25T12:21:42.515Z,58.64
2022-12-25T12:22:42.483Z,60.96
2022-12-25T12:23:42.482Z,58.74
2022-12-25T12:24:42.471Z,58.17
2022-12-25T12:25:42.467Z,58.73
2022-12-25T12:26:42.480Z,59.77
2022-12-25T12:27:42.477Z,60.39
2022-12-25T12:28:42.450Z,60.25
2022-12-25T12:29:42.447Z,58.14
2022-12-25T12:30:43.436Z,59.05
2022-12-25T12:31:42.513Z,58.24
2022-12-25T12:32:42.427Z,58.23
2022-12-25T12:33:42.406Z,56.95
2022-12-25T12:34:42.463Z,56.70
2022-12-25T12:35:42.394Z,57.47
2022-12-25T12:36:42.390Z,57.57
2022-12-25T12:37:42.504Z,57.89
2022-12-25T12:38:42.373Z,56.50
2022-12-25T12:39:42.365Z,56.02
2022-12-25T12:40:42.365Z,56.97
2022-12-25T12:41:43.357Z,56.64
2022-12-25T12:42:42.351Z,56.80
2022-12-25T12:43:42.355Z,57.36
2022-12-25T12:44:42.372Z,57.34
2022-12-25T12:45:42.364Z,57.00
2022-12-25T12:46:42.359Z,58.67
2022-12-25T12:47:42.324Z,58.98
2022-12-25T12:48:42.309Z,57.41
2022-12-25T12:49:43.298Z,58.55
2022-12-25T12:50:42.307Z,57.64
2022-12-25T12:51:42.285Z,58.78
2022-12-25T12:52:42.282Z,58.59